Azua, Dominican Republic
Current Conditions -  °F | °C
As of 3:00 PM on Saturday 25 Oct 2014 (Local Time) from MDST Reporting Station
Scattered Clouds Scattered Clouds  
Wind Chill: 91°   Ceiling: Unl
Heat Index: 100°   Visibility: 6mi
Dew Point: 73°   Wind: 9mph
Humidity: 55%   Direction: 130°SE
Pressure: 29.77"   Gusts: NA
Location:  18.46°N, 70.74°W
Report Text: MDST 251900Z 13008KT 9999 SCT028 SCT300 33/23 Q1008
Loading
Personal Weather Stations






























Interactive Weather Map
Tropical Storm Tracking
New forecast layout! Learn more

10-Day Weather Forecast

Advertisements
Track Severe Weather on mobile